sensor_id;sensor_type;location;lat;lon;timestamp;pressure;altitude;pressure_sealevel;temperature;humidity
10688;BME280;5392;42.688;23.298;2023-02-02T00:02:07;57555.38;;;-144.48;74.51
10688;BME280;5392;42.688;23.298;2023-02-02T00:04:35;57580.41;;;-144.48;75.00
10688;BME280;5392;42.688;23.298;2023-02-02T00:07:02;57547.00;;;-144.48;75.44
10688;BME280;5392;42.688;23.298;2023-02-02T00:09:31;57515.69;;;-144.48;75.97
10688;BME280;5392;42.688;23.298;2023-02-02T00:11:59;57507.34;;;-144.48;76.04
10688;BME280;5392;42.688;23.298;2023-02-02T00:14:27;57538.66;;;-144.48;76.33
10688;BME280;5392;42.688;23.298;2023-02-02T00:16:55;57565.81;;;-144.48;76.48
10688;BME280;5392;42.688;23.298;2023-02-02T00:19:25;57569.97;;;-144.48;76.90
10688;BME280;5392;42.688;23.298;2023-02-02T00:21:53;57569.97;;;-144.48;77.13
10688;BME280;5392;42.688;23.298;2023-02-02T00:24:21;57538.66;;;-144.48;76.27
10688;BME280;5392;42.688;23.298;2023-02-02T00:26:52;57590.84;;;-144.48;75.71
10688;BME280;5392;42.688;23.298;2023-02-02T00:29:24;57590.84;;;-144.48;75.96
10688;BME280;5392;42.688;23.298;2023-02-02T00:31:52;57576.22;;;-144.48;76.52
10688;BME280;5392;42.688;23.298;2023-02-02T00:34:19;57563.72;;;-144.48;76.07
10688;BME280;5392;42.688;23.298;2023-02-02T00:36:47;57561.63;;;-144.48;76.12
10688;BME280;5392;42.688;23.298;2023-02-02T00:39:17;57540.75;;;-144.48;76.24
10688;BME280;5392;42.688;23.298;2023-02-02T00:41:44;57528.22;;;-144.48;76.13
10688;BME280;5392;42.688;23.298;2023-02-02T00:44:11;57509.44;;;-144.48;76.17
10688;BME280;5392;42.688;23.298;2023-02-02T00:46:57;57524.06;;;-144.48;77.17
10688;BME280;5392;42.688;23.298;2023-02-02T00:49:24;57542.84;;;-144.48;79.38
10688;BME280;5392;42.688;23.298;2023-02-02T00:51:51;57605.47;;;-144.48;80.63
10688;BME280;5392;42.688;23.298;2023-02-02T00:54:18;57582.50;;;-144.48;81.42
10688;BME280;5392;42.688;23.298;2023-02-02T00:56:45;57563.72;;;-144.48;83.00
10688;BME280;5392;42.688;23.298;2023-02-02T00:59:11;57576.22;;;-144.48;85.37
10688;BME280;5392;42.688;23.298;2023-02-02T01:01:38;57561.63;;;-144.48;87.22
10688;BME280;5392;42.688;23.298;2023-02-02T01:04:05;57534.50;;;-144.48;87.33
10688;BME280;5392;42.688;23.298;2023-02-02T01:06:32;57542.84;;;-144.48;88.85
10688;BME280;5392;42.688;23.298;2023-02-02T01:08:59;57576.22;;;-144.48;89.45
10688;BME280;5392;42.688;23.298;2023-02-02T01:11:26;57584.59;;;-144.48;90.17
10688;BME280;5392;42.688;23.298;2023-02-02T01:13:52;57567.88;;;-144.48;91.33
10688;BME280;5392;42.688;23.298;2023-02-02T01:16:19;57530.31;;;-144.48;91.06
10688;BME280;5392;42.688;23.298;2023-02-02T01:18:48;57563.72;;;-144.48;90.46
10688;BME280;5392;42.688;23.298;2023-02-02T01:21:15;57536.56;;;-144.48;89.80
10688;BME280;5392;42.688;23.298;2023-02-02T01:23:42;57580.41;;;-144.48;89.03
10688;BME280;5392;42.688;23.298;2023-02-02T01:26:10;57578.31;;;-144.48;88.23
10688;BME280;5392;42.688;23.298;2023-02-02T01:28:38;57582.50;;;-144.48;88.29
10688;BME280;5392;42.688;23.298;2023-02-02T01:31:11;57567.88;;;-144.48;89.30
10688;BME280;5392;42.688;23.298;2023-02-02T01:33:38;57555.38;;;-144.48;91.28
10688;BME280;5392;42.688;23.298;2023-02-02T01:36:09;57578.31;;;-144.48;90.13
10688;BME280;5392;42.688;23.298;2023-02-02T01:38:36;57582.50;;;-144.48;89.67
10688;BME280;5392;42.688;23.298;2023-02-02T01:41:03;57599.19;;;-144.48;89.34
10688;BME280;5392;42.688;23.298;2023-02-02T01:43:52;57505.25;;;-144.48;89.06
10688;BME280;5392;42.688;23.298;2023-02-02T01:46:46;57538.66;;;-144.48;88.17
10688;BME280;5392;42.688;23.298;2023-02-02T01:49:18;57505.25;;;-144.48;88.71
10688;BME280;5392;42.688;23.298;2023-02-02T01:54:27;57563.72;;;-144.48;90.16
10688;BME280;5392;42.688;23.298;2023-02-02T01:56:59;57601.28;;;-144.48;91.92
10688;BME280;5392;42.688;23.298;2023-02-02T01:59:27;57555.38;;;-144.48;93.71
10688;BME280;5392;42.688;23.298;2023-02-02T02:01:55;57595.03;;;-144.48;95.52
10688;BME280;5392;42.688;23.298;2023-02-02T02:04:23;57590.84;;;-144.48;97.44
10688;BME280;5392;42.688;23.298;2023-02-02T02:06:52;57551.19;;;-144.48;98.75
10688;BME280;5392;42.688;23.298;2023-02-02T02:09:19;57578.31;;;-144.48;99.44
10688;BME280;5392;42.688;23.298;2023-02-02T02:11:46;57507.34;;;-144.48;100.00
10688;BME280;5392;42.688;23.298;2023-02-02T02:14:14;57580.41;;;-144.48;100.00
10688;BME280;5392;42.688;23.298;2023-02-02T02:17:30;57519.88;;;-144.48;100.00
10688;BME280;5392;42.688;23.298;2023-02-02T02:23:41;57586.66;;;-144.48;100.00
10688;BME280;5392;42.688;23.298;2023-02-02T02:32:40;57540.75;;;-144.48;100.00
10688;BME280;5392;42.688;23.298;2023-02-02T02:38:25;57565.81;;;-144.48;100.00
10688;BME280;5392;42.688;23.298;2023-02-02T02:40:59;57532.41;;;-144.48;100.00
10688;BME280;5392;42.688;23.298;2023-02-02T02:43:31;57538.66;;;-144.48;100.00
10688;BME280;5392;42.688;23.298;2023-02-02T02:46:01;57578.31;;;-144.48;100.00
10688;BME280;5392;42.688;23.298;2023-02-02T02:48:28;57530.31;;;-144.48;100.00
10688;BME280;5392;42.688;23.298;2023-02-02T02:51:05;57528.22;;;-144.48;100.00
10688;BME280;5392;42.688;23.298;2023-02-02T02:53:33;57576.22;;;-144.48;100.00
10688;BME280;5392;42.688;23.298;2023-02-02T02:56:11;57559.53;;;-144.48;100.00
10688;BME280;5392;42.688;23.298;2023-02-02T03:01:38;57601.28;;;-144.48;100.00
10688;BME280;5392;42.688;23.298;2023-02-02T03:04:14;57547.00;;;-144.48;100.00
10688;BME280;5392;42.688;23.298;2023-02-02T03:07:07;57599.19;;;-144.48;100.00
10688;BME280;5392;42.688;23.298;2023-02-02T03:09:41;57563.72;;;-144.48;100.00
10688;BME280;5392;42.688;23.298;2023-02-02T03:12:10;57542.84;;;-144.48;100.00
10688;BME280;5392;42.688;23.298;2023-02-02T03:14:37;57540.75;;;-144.48;100.00
10688;BME280;5392;42.688;23.298;2023-02-02T03:17:04;57538.66;;;-144.48;100.00
10688;BME280;5392;42.688;23.298;2023-02-02T03:19:32;57532.41;;;-144.48;100.00
10688;BME280;5392;42.688;23.298;2023-02-02T03:21:58;57576.22;;;-144.48;100.00
10688;BME280;5392;42.688;23.298;2023-02-02T03:24:25;57530.31;;;-144.48;100.00
10688;BME280;5392;42.688;23.298;2023-02-02T03:26:52;57597.09;;;-144.48;100.00
10688;BME280;5392;42.688;23.298;2023-02-02T03:29:19;57526.13;;;-144.48;100.00
10688;BME280;5392;42.688;23.298;2023-02-02T03:31:46;57524.06;;;-144.48;100.00
10688;BME280;5392;42.688;23.298;2023-02-02T03:34:12;57532.41;;;-144.48;100.00
10688;BME280;5392;42.688;23.298;2023-02-02T03:36:39;57555.38;;;-144.48;100.00
10688;BME280;5392;42.688;23.298;2023-02-02T03:39:06;57555.38;;;-144.48;100.00
10688;BME280;5392;42.688;23.298;2023-02-02T03:41:32;57553.28;;;-144.48;100.00
10688;BME280;5392;42.688;23.298;2023-02-02T03:43:59;57567.88;;;-144.48;100.00
10688;BME280;5392;42.688;23.298;2023-02-02T03:46:25;57534.50;;;-144.48;100.00
10688;BME280;5392;42.688;23.298;2023-02-02T03:48:53;57547.00;;;-144.48;100.00
10688;BME280;5392;42.688;23.298;2023-02-02T03:51:21;57578.31;;;-144.48;100.00
10688;BME280;5392;42.688;23.298;2023-02-02T03:53:47;57536.56;;;-144.48;100.00
10688;BME280;5392;42.688;23.298;2023-02-02T03:56:15;57561.63;;;-144.48;100.00
10688;BME280;5392;42.688;23.298;2023-02-02T03:58:41;57553.28;;;-144.48;100.00
10688;BME280;5392;42.688;23.298;2023-02-02T04:01:10;57476.03;;;-144.48;100.00
10688;BME280;5392;42.688;23.298;2023-02-02T04:03:38;57553.28;;;-144.48;100.00
10688;BME280;5392;42.688;23.298;2023-02-02T04:06:04;57576.22;;;-144.48;100.00
10688;BME280;5392;42.688;23.298;2023-02-02T04:08:31;57551.19;;;-144.48;100.00
10688;BME280;5392;42.688;23.298;2023-02-02T04:10:59;57513.63;;;-144.48;100.00
10688;BME280;5392;42.688;23.298;2023-02-02T04:13:26;57530.31;;;-144.48;100.00
10688;BME280;5392;42.688;23.298;2023-02-02T04:15:58;57580.41;;;-144.48;100.00
10688;BME280;5392;42.688;23.298;2023-02-02T04:18:25;57563.72;;;-144.48;100.00
10688;BME280;5392;42.688;23.298;2023-02-02T04:20:58;57542.84;;;-144.48;100.00
10688;BME280;5392;42.688;23.298;2023-02-02T04:23:26;57534.50;;;-144.48;100.00
10688;BME280;5392;42.688;23.298;2023-02-02T04:25:53;57530.31;;;-144.48;100.00
10688;BME280;5392;42.688;23.298;2023-02-02T04:28:20;57597.09;;;-144.48;100.00
10688;BME280;5392;42.688;23.298;2023-02-02T04:30:52;57536.56;;;-144.48;100.00
10688;BME280;5392;42.688;23.298;2023-02-02T04:33:21;57580.41;;;-144.48;100.00
10688;BME280;5392;42.688;23.298;2023-02-02T04:35:49;57563.72;;;-144.48;100.00
10688;BME280;5392;42.688;23.298;2023-02-02T04:38:16;57572.06;;;-144.48;100.00
10688;BME280;5392;42.688;23.298;2023-02-02T04:40:45;57563.72;;;-144.48;100.00
10688;BME280;5392;42.688;23.298;2023-02-02T04:43:13;57555.38;;;-144.48;100.00
10688;BME280;5392;42.688;23.298;2023-02-02T04:45:40;57586.66;;;-144.48;100.00
10688;BME280;5392;42.688;23.298;2023-02-02T04:48:08;57511.53;;;-144.48;100.00
10688;BME280;5392;42.688;23.298;2023-02-02T04:50:35;57538.66;;;-144.48;100.00
10688;BME280;5392;42.688;23.298;2023-02-02T04:53:03;57538.66;;;-144.48;100.00
10688;BME280;5392;42.688;23.298;2023-02-02T04:55:30;57534.50;;;-144.48;100.00
10688;BME280;5392;42.688;23.298;2023-02-02T04:57:56;57559.53;;;-144.48;100.00
10688;BME280;5392;42.688;23.298;2023-02-02T05:00:23;57511.53;;;-144.48;100.00
10688;BME280;5392;42.688;23.298;2023-02-02T05:02:50;57588.75;;;-144.48;100.00
10688;BME280;5392;42.688;23.298;2023-02-02T05:05:17;57528.22;;;-144.48;100.00
10688;BME280;5392;42.688;23.298;2023-02-02T05:07:43;57582.50;;;-144.48;100.00
10688;BME280;5392;42.688;23.298;2023-02-02T05:10:11;57547.00;;;-144.48;100.00
10688;BME280;5392;42.688;23.298;2023-02-02T05:12:37;57534.50;;;-144.48;100.00
10688;BME280;5392;42.688;23.298;2023-02-02T05:15:04;57578.31;;;-144.48;100.00
10688;BME280;5392;42.688;23.298;2023-02-02T05:17:32;57576.22;;;-144.48;100.00
10688;BME280;5392;42.688;23.298;2023-02-02T05:19:58;57597.09;;;-144.48;100.00
10688;BME280;5392;42.688;23.298;2023-02-02T05:22:25;57530.31;;;-144.48;100.00
10688;BME280;5392;42.688;23.298;2023-02-02T05:24:52;57569.97;;;-144.48;100.00
10688;BME280;5392;42.688;23.298;2023-02-02T05:27:19;57544.94;;;-144.48;100.00
10688;BME280;5392;42.688;23.298;2023-02-02T05:29:46;57565.81;;;-144.48;100.00
10688;BME280;5392;42.688;23.298;2023-02-02T05:32:13;57538.66;;;-144.48;100.00
10688;BME280;5392;42.688;23.298;2023-02-02T05:34:40;57519.88;;;-144.48;100.00
10688;BME280;5392;42.688;23.298;2023-02-02T05:37:07;57538.66;;;-144.48;100.00
10688;BME280;5392;42.688;23.298;2023-02-02T05:39:34;57492.75;;;-144.48;100.00
10688;BME280;5392;42.688;23.298;2023-02-02T05:42:01;57542.84;;;-144.48;100.00
10688;BME280;5392;42.688;23.298;2023-02-02T05:44:27;57509.44;;;-144.48;100.00
10688;BME280;5392;42.688;23.298;2023-02-02T05:46:54;57547.00;;;-144.48;100.00
10688;BME280;5392;42.688;23.298;2023-02-02T05:49:21;57569.97;;;-144.48;100.00
10688;BME280;5392;42.688;23.298;2023-02-02T05:51:51;57565.81;;;-144.48;100.00
10688;BME280;5392;42.688;23.298;2023-02-02T05:54:20;57505.25;;;-144.48;100.00
10688;BME280;5392;42.688;23.298;2023-02-02T05:56:48;57559.53;;;-144.48;100.00
10688;BME280;5392;42.688;23.298;2023-02-02T05:59:16;57551.19;;;-144.48;100.00
10688;BME280;5392;42.688;23.298;2023-02-02T06:01:46;57565.81;;;-144.48;100.00
10688;BME280;5392;42.688;23.298;2023-02-02T06:04:14;57555.38;;;-144.48;100.00
10688;BME280;5392;42.688;23.298;2023-02-02T06:06:41;57540.75;;;-144.48;100.00
10688;BME280;5392;42.688;23.298;2023-02-02T06:09:08;57555.38;;;-144.48;100.00
10688;BME280;5392;42.688;23.298;2023-02-02T06:11:35;57559.53;;;-144.48;100.00
10688;BME280;5392;42.688;23.298;2023-02-02T06:14:02;57595.03;;;-144.48;100.00
10688;BME280;5392;42.688;23.298;2023-02-02T06:16:28;57549.09;;;-144.48;100.00
10688;BME280;5392;42.688;23.298;2023-02-02T06:18:55;57540.75;;;-144.48;100.00
10688;BME280;5392;42.688;23.298;2023-02-02T06:21:22;57569.97;;;-144.48;100.00
10688;BME280;5392;42.688;23.298;2023-02-02T06:23:50;57567.88;;;-144.48;100.00
10688;BME280;5392;42.688;23.298;2023-02-02T06:26:18;57567.88;;;-144.48;100.00
10688;BME280;5392;42.688;23.298;2023-02-02T06:28:51;57530.31;;;-144.48;100.00
10688;BME280;5392;42.688;23.298;2023-02-02T06:31:18;57557.44;;;-144.48;100.00
10688;BME280;5392;42.688;23.298;2023-02-02T06:33:47;57597.09;;;-144.48;100.00
10688;BME280;5392;42.688;23.298;2023-02-02T06:36:14;57567.88;;;-144.48;100.00
10688;BME280;5392;42.688;23.298;2023-02-02T06:38:40;57582.50;;;-144.48;100.00
10688;BME280;5392;42.688;23.298;2023-02-02T06:41:07;57553.28;;;-144.48;100.00
10688;BME280;5392;42.688;23.298;2023-02-02T06:43:35;57515.69;;;-144.48;100.00
10688;BME280;5392;42.688;23.298;2023-02-02T06:46:02;57528.22;;;-144.48;100.00
10688;BME280;5392;42.688;23.298;2023-02-02T06:48:28;57559.53;;;-144.48;100.00
10688;BME280;5392;42.688;23.298;2023-02-02T06:50:59;57544.94;;;-144.48;100.00
10688;BME280;5392;42.688;23.298;2023-02-02T06:53:26;57549.09;;;-144.48;100.00
10688;BME280;5392;42.688;23.298;2023-02-02T06:55:57;57553.28;;;-144.48;100.00
10688;BME280;5392;42.688;23.298;2023-02-02T06:58:26;57580.41;;;-144.48;100.00
10688;BME280;5392;42.688;23.298;2023-02-02T07:00:53;57559.53;;;-144.48;100.00
10688;BME280;5392;42.688;23.298;2023-02-02T07:03:21;57567.88;;;-144.48;100.00
10688;BME280;5392;42.688;23.298;2023-02-02T07:05:48;57515.69;;;-144.48;100.00
10688;BME280;5392;42.688;23.298;2023-02-02T07:08:15;57530.31;;;-144.48;99.73
10688;BME280;5392;42.688;23.298;2023-02-02T07:10:42;57565.81;;;-144.48;94.43
10688;BME280;5392;42.688;23.298;2023-02-02T07:13:29;57547.00;;;-144.48;91.01
10688;BME280;5392;42.688;23.298;2023-02-02T07:15:56;57540.75;;;-144.48;91.95
10688;BME280;5392;42.688;23.298;2023-02-02T07:18:23;57534.50;;;-144.48;90.04
10688;BME280;5392;42.688;23.298;2023-02-02T07:20:50;57561.63;;;-144.48;88.01
10688;BME280;5392;42.688;23.298;2023-02-02T07:23:17;57536.56;;;-144.48;86.90
10688;BME280;5392;42.688;23.298;2023-02-02T07:25:43;57569.97;;;-144.48;84.37
10688;BME280;5392;42.688;23.298;2023-02-02T07:28:10;57576.22;;;-144.48;83.56
10688;BME280;5392;42.688;23.298;2023-02-02T07:30:37;57553.28;;;-144.48;82.59
10688;BME280;5392;42.688;23.298;2023-02-02T07:33:04;57569.97;;;-144.48;82.15
10688;BME280;5392;42.688;23.298;2023-02-02T07:35:31;57553.28;;;-144.48;80.97
10688;BME280;5392;42.688;23.298;2023-02-02T07:37:58;57567.88;;;-144.48;80.29
10688;BME280;5392;42.688;23.298;2023-02-02T07:40:24;57592.94;;;-144.48;80.18
10688;BME280;5392;42.688;23.298;2023-02-02T07:42:51;57528.22;;;-144.48;77.30
10688;BME280;5392;42.688;23.298;2023-02-02T07:45:18;57563.72;;;-144.48;76.99
10688;BME280;5392;42.688;23.298;2023-02-02T07:48:01;57540.75;;;-144.48;76.54
10688;BME280;5392;42.688;23.298;2023-02-02T07:50:29;57532.41;;;-144.48;76.16
10688;BME280;5392;42.688;23.298;2023-02-02T07:52:58;57553.28;;;-144.48;74.79
10688;BME280;5392;42.688;23.298;2023-02-02T07:55:25;57547.00;;;-144.48;74.23
10688;BME280;5392;42.688;23.298;2023-02-02T07:57:52;57544.94;;;-144.48;73.25
10688;BME280;5392;42.688;23.298;2023-02-02T08:00:21;57542.84;;;-144.48;72.32
10688;BME280;5392;42.688;23.298;2023-02-02T08:02:48;57551.19;;;-144.48;78.00
10688;BME280;5392;42.688;23.298;2023-02-02T08:05:15;57519.88;;;-144.48;78.48
10688;BME280;5392;42.688;23.298;2023-02-02T08:07:42;57563.72;;;-144.48;76.02
10688;BME280;5392;42.688;23.298;2023-02-02T08:10:10;57547.00;;;-144.48;74.50
10688;BME280;5392;42.688;23.298;2023-02-02T08:12:37;57540.75;;;-144.48;73.35
10688;BME280;5392;42.688;23.298;2023-02-02T08:15:04;57547.00;;;-144.48;76.29
10688;BME280;5392;42.688;23.298;2023-02-02T08:17:31;57499.00;;;-144.48;76.80
10688;BME280;5392;42.688;23.298;2023-02-02T08:19:58;57551.19;;;-144.48;76.60
10688;BME280;5392;42.688;23.298;2023-02-02T08:22:25;57526.13;;;-144.48;76.12
10688;BME280;5392;42.688;23.298;2023-02-02T08:24:51;57484.41;;;-144.48;76.46
10688;BME280;5392;42.688;23.298;2023-02-02T08:27:18;57565.81;;;-144.48;74.52
10688;BME280;5392;42.688;23.298;2023-02-02T08:29:45;57530.31;;;-144.48;76.51
10688;BME280;5392;42.688;23.298;2023-02-02T08:32:11;57544.94;;;-144.48;78.16
10688;BME280;5392;42.688;23.298;2023-02-02T08:34:38;57549.09;;;-144.48;77.45
10688;BME280;5392;42.688;23.298;2023-02-02T08:37:06;57555.38;;;-144.48;72.83
10688;BME280;5392;42.688;23.298;2023-02-02T08:39:33;57559.53;;;-144.48;71.16
10688;BME280;5392;42.688;23.298;2023-02-02T08:41:59;57515.69;;;-144.48;70.24
10688;BME280;5392;42.688;23.298;2023-02-02T08:44:26;57563.72;;;-144.48;70.10
10688;BME280;5392;42.688;23.298;2023-02-02T08:47:13;57542.84;;;-144.48;70.18
10688;BME280;5392;42.688;23.298;2023-02-02T08:49:39;57526.13;;;-144.48;70.10
10688;BME280;5392;42.688;23.298;2023-02-02T08:52:07;57574.16;;;-144.48;69.72
10688;BME280;5392;42.688;23.298;2023-02-02T08:54:34;57511.53;;;-144.48;69.90
10688;BME280;5392;42.688;23.298;2023-02-02T08:57:01;57584.59;;;-144.48;69.98
10688;BME280;5392;42.688;23.298;2023-02-02T08:59:28;57563.72;;;-144.48;70.26
10688;BME280;5392;42.688;23.298;2023-02-02T09:01:55;57547.00;;;-144.48;69.82
10688;BME280;5392;42.688;23.298;2023-02-02T09:04:24;57503.19;;;-144.48;69.76
10688;BME280;5392;42.688;23.298;2023-02-02T09:06:51;57536.56;;;-144.48;69.84
10688;BME280;5392;42.688;23.298;2023-02-02T09:09:17;57567.88;;;-144.48;68.42
10688;BME280;5392;42.688;23.298;2023-02-02T09:11:44;57538.66;;;-144.48;68.17
10688;BME280;5392;42.688;23.298;2023-02-02T09:14:12;57553.28;;;-144.48;67.29
10688;BME280;5392;42.688;23.298;2023-02-02T09:16:39;57532.41;;;-144.48;67.20
10688;BME280;5392;42.688;23.298;2023-02-02T09:19:06;57505.25;;;-144.48;67.64
10688;BME280;5392;42.688;23.298;2023-02-02T09:21:33;57519.88;;;-144.48;66.46
10688;BME280;5392;42.688;23.298;2023-02-02T09:24:09;57534.50;;;-144.48;67.01
10688;BME280;5392;42.688;23.298;2023-02-02T09:26:36;57505.25;;;-144.48;66.88
10688;BME280;5392;42.688;23.298;2023-02-02T09:29:07;57526.13;;;-144.48;65.61
10688;BME280;5392;42.688;23.298;2023-02-02T09:31:36;57553.28;;;-144.48;66.79
10688;BME280;5392;42.688;23.298;2023-02-02T09:34:06;57563.72;;;-144.48;67.04
10688;BME280;5392;42.688;23.298;2023-02-02T09:36:34;57519.88;;;-144.48;66.42
10688;BME280;5392;42.688;23.298;2023-02-02T09:39:01;57559.53;;;-144.48;65.66
10688;BME280;5392;42.688;23.298;2023-02-02T09:52:56;57532.41;;;-144.48;63.81
10688;BME280;5392;42.688;23.298;2023-02-02T09:55:43;57540.75;;;-144.48;63.57
10688;BME280;5392;42.688;23.298;2023-02-02T09:58:30;57526.13;;;-144.48;63.83
10688;BME280;5392;42.688;23.298;2023-02-02T10:01:13;57534.50;;;-144.48;63.03
10688;BME280;5392;42.688;23.298;2023-02-02T10:03:44;57526.13;;;-144.48;62.90
10688;BME280;5392;42.688;23.298;2023-02-02T10:06:25;57505.25;;;-144.48;62.81
10688;BME280;5392;42.688;23.298;2023-02-02T10:12:27;57524.06;;;-144.48;62.29
10688;BME280;5392;42.688;23.298;2023-02-02T10:15:03;57519.88;;;-144.48;61.82
10688;BME280;5392;42.688;23.298;2023-02-02T10:17:47;57553.28;;;-144.48;61.82
10688;BME280;5392;42.688;23.298;2023-02-02T10:22:53;57492.75;;;-144.48;61.19
10688;BME280;5392;42.688;23.298;2023-02-02T10:25:26;57519.88;;;-144.48;60.58
10688;BME280;5392;42.688;23.298;2023-02-02T10:28:05;57534.50;;;-144.48;60.82
10688;BME280;5392;42.688;23.298;2023-02-02T10:30:46;57555.38;;;-144.48;60.69
10688;BME280;5392;42.688;23.298;2023-02-02T10:33:38;57526.13;;;-144.48;60.05
10688;BME280;5392;42.688;23.298;2023-02-02T10:36:26;57561.63;;;-144.48;59.67
10688;BME280;5392;42.688;23.298;2023-02-02T10:39:06;57544.94;;;-144.48;60.26
10688;BME280;5392;42.688;23.298;2023-02-02T10:41:53;57488.56;;;-144.48;60.39
10688;BME280;5392;42.688;23.298;2023-02-02T10:44:52;57515.69;;;-144.48;60.46
10688;BME280;5392;42.688;23.298;2023-02-02T10:47:26;57542.84;;;-144.48;60.47
10688;BME280;5392;42.688;23.298;2023-02-02T10:52:44;57484.41;;;-144.48;60.35
10688;BME280;5392;42.688;23.298;2023-02-02T10:57:52;57547.00;;;-144.48;60.59
10688;BME280;5392;42.688;23.298;2023-02-02T11:03:14;57496.91;;;-144.48;59.79
10688;BME280;5392;42.688;23.298;2023-02-02T11:05:41;57494.81;;;-144.48;59.18
10688;BME280;5392;42.688;23.298;2023-02-02T11:08:31;57492.75;;;-144.48;59.72
10688;BME280;5392;42.688;23.298;2023-02-02T11:13:56;57532.41;;;-144.48;60.86
10688;BME280;5392;42.688;23.298;2023-02-02T11:16:30;57561.63;;;-144.48;61.34
10688;BME280;5392;42.688;23.298;2023-02-02T11:19:21;57496.91;;;-144.48;61.14
10688;BME280;5392;42.688;23.298;2023-02-02T11:21:49;57557.44;;;-144.48;61.10
10688;BME280;5392;42.688;23.298;2023-02-02T11:27:06;57549.09;;;-144.48;60.95
10688;BME280;5392;42.688;23.298;2023-02-02T11:32:30;57532.41;;;-144.48;60.94
10688;BME280;5392;42.688;23.298;2023-02-02T11:37:37;57517.78;;;-144.48;60.69
10688;BME280;5392;42.688;23.298;2023-02-02T11:43:05;57532.41;;;-144.48;60.30
10688;BME280;5392;42.688;23.298;2023-02-02T11:45:43;57574.16;;;-144.48;60.54
10688;BME280;5392;42.688;23.298;2023-02-02T11:48:20;57511.53;;;-144.48;60.20
10688;BME280;5392;42.688;23.298;2023-02-02T11:50:50;57549.09;;;-144.48;60.58
10688;BME280;5392;42.688;23.298;2023-02-02T11:55:53;57501.09;;;-144.48;61.27
10688;BME280;5392;42.688;23.298;2023-02-02T11:58:26;57561.63;;;-144.48;61.69
10688;BME280;5392;42.688;23.298;2023-02-02T12:01:00;57526.13;;;-144.48;60.73
10688;BME280;5392;42.688;23.298;2023-02-02T12:03:28;57542.84;;;-144.48;60.10
10688;BME280;5392;42.688;23.298;2023-02-02T12:05:56;57496.91;;;-144.48;59.52
10688;BME280;5392;42.688;23.298;2023-02-02T12:08:23;57521.97;;;-144.48;58.96
10688;BME280;5392;42.688;23.298;2023-02-02T12:11:01;57534.50;;;-144.48;58.98
10688;BME280;5392;42.688;23.298;2023-02-02T12:16:39;57521.97;;;-144.48;59.79
10688;BME280;5392;42.688;23.298;2023-02-02T12:19:32;57547.00;;;-144.48;60.41
10688;BME280;5392;42.688;23.298;2023-02-02T12:28:10;57505.25;;;-144.48;60.83
10688;BME280;5392;42.688;23.298;2023-02-02T13:03:17;57530.31;;;-144.48;61.22
10688;BME280;5392;42.688;23.298;2023-02-02T13:08:50;57538.66;;;-144.48;61.16
10688;BME280;5392;42.688;23.298;2023-02-02T13:14:13;57538.66;;;-144.48;61.64
10688;BME280;5392;42.688;23.298;2023-02-02T13:16:51;57521.97;;;-144.48;61.19
10688;BME280;5392;42.688;23.298;2023-02-02T13:19:29;57517.78;;;-144.48;61.72
10688;BME280;5392;42.688;23.298;2023-02-02T13:21:59;57521.97;;;-144.48;61.24
10688;BME280;5392;42.688;23.298;2023-02-02T13:24:32;57530.31;;;-144.48;61.30
10688;BME280;5392;42.688;23.298;2023-02-02T13:27:03;57551.19;;;-144.48;61.84
10688;BME280;5392;42.688;23.298;2023-02-02T13:29:36;57538.66;;;-144.48;61.85
10688;BME280;5392;42.688;23.298;2023-02-02T13:32:27;57517.78;;;-144.48;61.80
10688;BME280;5392;42.688;23.298;2023-02-02T13:35:00;57501.09;;;-144.48;61.82
10688;BME280;5392;42.688;23.298;2023-02-02T13:37:38;57524.06;;;-144.48;61.76
10688;BME280;5392;42.688;23.298;2023-02-02T13:42:53;57530.31;;;-144.48;61.87
10688;BME280;5392;42.688;23.298;2023-02-02T13:48:11;57534.50;;;-144.48;62.49
10688;BME280;5392;42.688;23.298;2023-02-02T13:50:51;57526.13;;;-144.48;63.10
10688;BME280;5392;42.688;23.298;2023-02-02T13:59:11;57528.22;;;-144.48;63.66
10688;BME280;5392;42.688;23.298;2023-02-02T14:01:47;57517.78;;;-144.48;64.81
10688;BME280;5392;42.688;23.298;2023-02-02T14:04:28;57538.66;;;-144.48;66.29
10688;BME280;5392;42.688;23.298;2023-02-02T14:07:04;57544.94;;;-144.48;66.73
10688;BME280;5392;42.688;23.298;2023-02-02T14:09:34;57509.44;;;-144.48;66.08
10688;BME280;5392;42.688;23.298;2023-02-02T14:12:05;57559.53;;;-144.48;66.15
10688;BME280;5392;42.688;23.298;2023-02-02T14:14:35;57559.53;;;-144.48;66.69
10688;BME280;5392;42.688;23.298;2023-02-02T14:29:34;57528.22;;;-144.48;73.61
10688;BME280;5392;42.688;23.298;2023-02-02T14:34:41;57517.78;;;-144.48;79.65
10688;BME280;5392;42.688;23.298;2023-02-02T14:40:02;57563.72;;;-144.48;85.20
10688;BME280;5392;42.688;23.298;2023-02-02T14:51:30;57544.94;;;-144.48;100.00
10688;BME280;5392;42.688;23.298;2023-02-02T14:54:01;57561.63;;;-144.48;100.00
10688;BME280;5392;42.688;23.298;2023-02-02T14:57:00;57513.63;;;-144.48;100.00
10688;BME280;5392;42.688;23.298;2023-02-02T14:59:33;57496.91;;;-144.48;100.00
10688;BME280;5392;42.688;23.298;2023-02-02T15:02:07;57524.06;;;-144.48;100.00
10688;BME280;5392;42.688;23.298;2023-02-02T15:04:36;57528.22;;;-144.48;100.00
10688;BME280;5392;42.688;23.298;2023-02-02T15:09:51;57505.25;;;-144.48;100.00
10688;BME280;5392;42.688;23.298;2023-02-02T15:12:38;57511.53;;;-144.48;100.00
10688;BME280;5392;42.688;23.298;2023-02-02T15:20:28;57536.56;;;-144.48;100.00
10688;BME280;5392;42.688;23.298;2023-02-02T15:23:03;57542.84;;;-144.48;100.00
10688;BME280;5392;42.688;23.298;2023-02-02T15:25:58;57553.28;;;-144.48;100.00
10688;BME280;5392;42.688;23.298;2023-02-02T15:31:38;57540.75;;;-144.48;100.00